Time;durP1;ratioP1;P1;durP2;ratioP2;P2;SDS_P1;SDS_P2;PMS_P1;PMS_P2;Temp;Humidity;BMP_temperature;BMP_pressure;BME280_temperature;BME280_humidity;BME280_pressure;Samples;Min_cycle;Max_cycle;Signal;HPM_P1;HPM_P2
2022/03/11 04:07:59;;;;;;;;;;;;;;;;;;5073790;28;19928;-76
2022/03/11 04:10:25;;;;;;;;;;;;;;;;;;5073106;28;19924;-76
2022/03/11 04:12:50;;;;;;;;;;;;;;;;;;5072843;28;19920;-75
2022/03/11 04:15:15;;;;;;;;;;;;;;;;;;5084504;28;19923;-76
2022/03/11 04:17:41;;;;;;;;;;;;;;;;;;5094518;28;19916;-76
2022/03/11 04:20:07;;;;;;;;;;;;;;;;;;5097290;28;19916;-76
2022/03/11 04:22:32;;;;;;;;;;;;;;;;;;5097053;28;19966;-76
2022/03/11 04:24:57;;;;;;;;;;;;;;;;;;5097084;28;19923;-76
2022/03/11 04:27:22;;;;;;;;;;;;;;;;;;5096788;28;19997;-76
2022/03/11 04:29:48;;;;;;;;;;;;;;;;;;5096814;28;19919;-76
2022/03/11 04:32:13;;;;;;;;;;;;;;;;;;5096660;28;19923;-75
2022/03/11 04:34:42;;;;;;;;;;;;;;;;;;5097146;28;19916;-76
2022/03/11 04:37:07;;;;;;;;;;;;;;;;;;5096920;28;19923;-75
2022/03/11 04:39:33;;;;;;;;;;;;;;;;;;5095047;28;19945;-76
2022/03/11 04:41:59;;;;;;;;;;;;;;;;;;5095700;28;19927;-75
2022/03/11 04:44:24;;;;;;;;;;;;;;;;;;5096406;28;19916;-75
2022/03/11 04:46:50;;;;;;;;;;;;;;;;;;5096681;28;19969;-75
2022/03/11 04:49:15;;;;;;;;;;;;;;;;;;5095375;28;19924;-76
2022/03/11 04:51:42;;;;;;;;;;;;;;;;;;5096853;28;19927;-76
2022/03/11 04:54:07;;;;;;;;;;;;;;;;;;5096669;28;19917;-76
2022/03/11 04:56:33;;;;;;;;;;;;;;;;;;5096382;28;19916;-75
2022/03/11 04:58:59;;;;;;;;;;;;;;;;;;5096426;28;19967;-75
2022/03/11 05:01:24;;;;;;;;;;;;;;;;;;5096540;28;19966;-75
2022/03/11 05:03:50;;;;;;;;;;;;;;;;;;5096248;28;19920;-75
2022/03/11 05:06:16;;;;;;;;;;;;;;;;;;5104737;28;19924;-76
2022/03/11 05:08:41;;;;;;;;;;;;;;;;;;5116767;28;20304;-76
2022/03/11 05:11:06;;;;;;;;;;;;;;;;;;5116693;28;19961;-76
2022/03/11 05:13:32;;;;;;;;;;;;;;;;;;5115627;28;19955;-76
2022/03/11 05:15:57;;;;;;;;;;;;;;;;;;5116577;28;19923;-75
2022/03/11 05:18:22;;;;;;;;;;;;;;;;;;5116354;28;19922;-75
2022/03/11 05:20:48;;;;;;;;;;;;;;;;;;5116690;28;19920;-76
2022/03/11 05:23:13;;;;;;;;;;;;;;;;;;5116659;28;19916;-75
2022/03/11 05:25:38;;;;;;;;;;;;;;;;;;5116593;28;19931;-75
2022/03/11 05:28:04;;;;;;;;;;;;;;;;;;5115795;28;19927;-75
2022/03/11 05:30:30;;;;;;;;;;;;;;;;;;5115838;28;19923;-76
2022/03/11 05:32:55;;;;;;;;;;;;;;;;;;5116241;28;19923;-75
2022/03/11 05:35:20;;;;;;;;;;;;;;;;;;5116407;28;19942;-76
2022/03/11 05:37:47;;;;;;;;;;;;;;;;;;5116121;28;19912;-76
2022/03/11 05:40:13;;;;;;;;;;;;;;;;;;5115997;28;20389;-75
2022/03/11 05:42:39;;;;;;;;;;;;;;;;;;5114734;28;19923;-75
2022/03/11 05:45:07;;;;;;;;;;;;;;;;;;5116067;28;20010;-75
2022/03/11 05:47:32;;;;;;;;;;;;;;;;;;5116036;28;20281;-76
2022/03/11 05:49:58;;;;;;;;;;;;;;;;;;5115967;27;19961;-76
2022/03/11 05:52:23;;;;;;;;;;;;;;;;;;5114001;28;20024;-75
2022/03/11 05:54:49;;;;;;;;;;;;;;;;;;5115347;28;20423;-75
2022/03/11 05:57:14;;;;;;;;;;;;;;;;;;5114635;28;19923;-75
2022/03/11 05:59:39;;;;;;;;;;;;;;;;;;5115441;28;19916;-76
2022/03/11 06:02:05;;;;;;;;;;;;;;;;;;5115454;28;20378;-76
2022/03/11 06:04:30;;;;;;;;;;;;;;;;;;5115399;28;19979;-76
2022/03/11 06:06:55;;;;;;;;;;;;;;;;;;5115288;28;20278;-76
2022/03/11 06:09:20;;;;;;;;;;;;;;;;;;5115370;28;20369;-75
2022/03/11 06:11:46;;;;;;;;;;;;;;;;;;5114571;28;20003;-75
2022/03/11 06:14:11;;;;;;;;;;;;;;;;;;5094363;28;20005;-76
2022/03/11 06:16:39;;;;;;;;;;;;;;;;;;5093428;28;19916;-76
2022/03/11 06:19:04;;;;;;;;;;;;;;;;;;5093743;28;19999;-76
2022/03/11 06:21:30;;;;;;;;;;;;;;;;;;5096070;28;20388;-76
2022/03/11 06:23:56;;;;;;;;;;;;;;;;;;5096514;28;19916;-78
2022/03/11 06:26:21;;;;;;;;;;;;;;;;;;5113491;28;19919;-76
2022/03/11 06:28:47;;;;;;;;;;;;;;;;;;5116583;28;19945;-77
2022/03/11 06:31:13;;;;;;;;;;;;;;;;;;5120319;28;19961;-80
2022/03/11 06:33:39;;;;;;;;;;;;;;;;;;5122709;28;19920;-79
2022/03/11 06:36:05;;;;;;;;;;;;;;;;;;5118432;28;19915;-78
2022/03/11 06:38:30;;;;;;;;;;;;;;;;;;5118231;28;20329;-79
2022/03/11 06:40:57;;;;;;;;;;;;;;;;;;5120170;28;19912;-79
2022/03/11 06:43:22;;;;;;;;;;;;;;;;;;5121336;28;19937;-80
2022/03/11 06:45:48;;;;;;;;;;;;;;;;;;5118917;28;19916;-79
2022/03/11 06:48:14;;;;;;;;;;;;;;;;;;5121007;28;19926;-79
2022/03/11 06:50:39;;;;;;;;;;;;;;;;;;5122730;28;20334;-80
2022/03/11 06:53:04;;;;;;;;;;;;;;;;;;5122509;28;19970;-80
2022/03/11 06:55:29;;;;;;;;;;;;;;;;;;5127215;28;19916;-78
2022/03/11 06:57:55;;;;;;;;;;;;;;;;;;5122553;28;19916;-79
2022/03/11 07:00:20;;;;;;;;;;;;;;;;;;5120240;28;19973;-81
2022/03/11 07:02:45;;;;;;;;;;;;;;;;;;5118953;28;19915;-78
2022/03/11 07:05:11;;;;;;;;;;;;;;;;;;5118502;28;19919;-77
2022/03/11 07:07:36;;;;;;;;;;;;;;;;;;5115160;28;19920;-76
2022/03/11 07:10:07;;;;;;;;;;;;;;;;;;5114474;28;19915;-76
2022/03/11 07:12:32;;;;;;;;;;;;;;;;;;5112885;28;20381;-76
2022/03/11 07:14:59;;;;;;;;;;;;;;;;;;5114420;28;19916;-76
2022/03/11 07:17:25;;;;;;;;;;;;;;;;;;5114392;28;19916;-76
2022/03/11 07:19:50;;;;;;;;;;;;;;;;;;5114408;28;19919;-76
2022/03/11 07:22:16;;;;;;;;;;;;;;;;;;5114110;28;19918;-76
2022/03/11 07:24:41;;;;;;;;;;;;;;;;;;5114390;28;19926;-76
2022/03/11 07:27:06;;;;;;;;;;;;;;;;;;5113765;28;19916;-76
2022/03/11 07:29:32;;;;;;;;;;;;;;;;;;5114109;28;19966;-77
2022/03/11 07:31:57;;;;;;;;;;;;;;;;;;5095843;28;19916;-76
2022/03/11 07:34:23;;;;;;;;;;;;;;;;;;5114185;28;19959;-77
2022/03/11 07:36:49;;;;;;;;;;;;;;;;;;5114077;28;20010;-76
2022/03/11 07:39:14;;;;;;;;;;;;;;;;;;5114115;28;20417;-77
2022/03/11 07:41:39;;;;;;;;;;;;;;;;;;5114081;28;19969;-77
2022/03/11 07:44:05;;;;;;;;;;;;;;;;;;5112444;28;19916;-76
2022/03/11 07:46:31;;;;;;;;;;;;;;;;;;5111899;28;20315;-77
2022/03/11 07:48:57;;;;;;;;;;;;;;;;;;5113577;28;19973;-77
2022/03/11 07:51:22;;;;;;;;;;;;;;;;;;5113934;28;19916;-77
2022/03/11 07:53:49;;;;;;;;;;;;;;;;;;5116607;28;19923;-77
2022/03/11 07:56:15;;;;;;;;;;;;;;;;;;5117625;28;20007;-77
2022/03/11 07:58:41;;;;;;;;;;;;;;;;;;5117483;28;19911;-77
2022/03/11 08:01:09;;;;;;;;;;;;;;;;;;5117938;28;19969;-76
2022/03/11 08:03:38;;;;;;;;;;;;;;;;;;5118727;28;19916;-76
2022/03/11 08:06:05;;;;;;;;;;;;;;;;;;5121386;28;19987;-78
2022/03/11 08:08:31;;;;;;;;;;;;;;;;;;5132853;28;19952;-80
2022/03/11 08:10:57;;;;;;;;;;;;;;;;;;5130077;28;19920;-77
2022/03/11 08:13:23;;;;;;;;;;;;;;;;;;5120544;28;19975;-78
2022/03/11 08:15:48;;;;;;;;;;;;;;;;;;5128231;28;19964;-78
2022/03/11 08:18:14;;;;;;;;;;;;;;;;;;5127001;27;19915;-78
2022/03/11 08:20:40;;;;;;;;;;;;;;;;;;5127100;28;19937;-80
2022/03/11 08:23:06;;;;;;;;;;;;;;;;;;5128726;28;19915;-80
2022/03/11 08:25:31;;;;;;;;;;;;;;;;;;5124383;28;19923;-81
2022/03/11 08:27:57;;;;;;;;;;;;;;;;;;5123259;28;20380;-80
2022/03/11 08:30:24;;;;;;;;;;;;;;;;;;5124326;28;19944;-79
2022/03/11 08:32:50;;;;;;;;;;;;;;;;;;5124686;28;19916;-79
2022/03/11 08:35:16;;;;;;;;;;;;;;;;;;5119858;28;19922;-79
2022/03/11 08:37:42;;;;;;;;;;;;;;;;;;5122569;28;19916;-79
2022/03/11 08:40:08;;;;;;;;;;;;;;;;;;5124115;28;20006;-79
2022/03/11 08:42:35;;;;;;;;;;;;;;;;;;5122838;28;19922;-79
2022/03/11 08:45:01;;;;;;;;;;;;;;;;;;5114910;28;19915;-79
2022/03/11 08:47:27;;;;;;;;;;;;;;;;;;5121890;28;19920;-79
2022/03/11 08:49:52;;;;;;;;;;;;;;;;;;5122845;28;19916;-79
2022/03/11 08:52:19;;;;;;;;;;;;;;;;;;5123086;28;19932;-79
2022/03/11 08:54:44;;;;;;;;;;;;;;;;;;5117859;28;19978;-79
2022/03/11 08:57:10;;;;;;;;;;;;;;;;;;5098734;28;19963;-79
2022/03/11 08:59:35;;;;;;;;;;;;;;;;;;5115419;28;19915;-79
2022/03/11 09:02:02;;;;;;;;;;;;;;;;;;5114846;28;19923;-79
2022/03/11 09:04:27;;;;;;;;;;;;;;;;;;5111950;28;19975;-79
2022/03/11 09:06:53;;;;;;;;;;;;;;;;;;5114577;28;19958;-79
2022/03/11 09:09:18;;;;;;;;;;;;;;;;;;5114490;28;19926;-79
2022/03/11 09:11:43;;;;;;;;;;;;;;;;;;5112632;28;20424;-79
2022/03/11 09:14:09;;;;;;;;;;;;;;;;;;5116287;28;19951;-79
2022/03/11 09:16:35;;;;;;;;;;;;;;;;;;5113885;28;20377;-79
2022/03/11 09:19:01;;;;;;;;;;;;;;;;;;5113448;28;19980;-79
2022/03/11 09:21:26;;;;;;;;;;;;;;;;;;5110606;28;20273;-79
2022/03/11 09:23:52;;;;;;;;;;;;;;;;;;5113941;28;19916;-79
2022/03/11 09:26:17;;;;;;;;;;;;;;;;;;5101543;28;19985;-79
2022/03/11 09:28:47;;;;;;;;;;;;;;;;;;5103425;28;19920;-79
2022/03/11 09:31:15;;;;;;;;;;;;;;;;;;5118886;28;19922;-79
2022/03/11 09:33:40;;;;;;;;;;;;;;;;;;5118818;28;19924;-79
2022/03/11 09:36:06;;;;;;;;;;;;;;;;;;5114115;28;19923;-79
2022/03/11 09:38:32;;;;;;;;;;;;;;;;;;5108305;28;19934;-76
2022/03/11 09:41:00;;;;;;;;;;;;;;;;;;5083192;28;20322;-79
2022/03/11 09:43:26;;;;;;;;;;;;;;;;;;5111825;28;19916;-78
2022/03/11 09:45:52;;;;;;;;;;;;;;;;;;5119836;28;19920;-78
2022/03/11 09:48:18;;;;;;;;;;;;;;;;;;5103510;28;19930;-79
2022/03/11 09:50:43;;;;;;;;;;;;;;;;;;5116518;28;19912;-79
2022/03/11 09:53:10;;;;;;;;;;;;;;;;;;5113032;28;20571;-79
2022/03/11 09:55:35;;;;;;;;;;;;;;;;;;5109140;28;19955;-79
2022/03/11 09:58:00;;;;;;;;;;;;;;;;;;5111644;28;19927;-79
2022/03/11 10:00:26;;;;;;;;;;;;;;;;;;5110536;28;19926;-79
2022/03/11 10:02:55;;;;;;;;;;;;;;;;;;5111272;28;19922;-79
2022/03/11 10:05:21;;;;;;;;;;;;;;;;;;5112842;28;19916;-79
2022/03/11 10:08:05;;;;;;;;;;;;;;;;;;5103100;28;20315;-80
2022/03/11 10:10:31;;;;;;;;;;;;;;;;;;5112028;28;19916;-79
2022/03/11 10:12:56;;;;;;;;;;;;;;;;;;5100204;28;19923;-80
2022/03/11 10:15:26;;;;;;;;;;;;;;;;;;5106465;28;20771;-78
2022/03/11 10:17:52;;;;;;;;;;;;;;;;;;5124071;28;20412;-78
2022/03/11 10:20:18;;;;;;;;;;;;;;;;;;5118261;28;19916;-79
2022/03/11 10:22:46;;;;;;;;;;;;;;;;;;5118418;28;19983;-79
2022/03/11 10:25:16;;;;;;;;;;;;;;;;;;5110357;28;19915;-77
2022/03/11 10:27:55;;;;;;;;;;;;;;;;;;5121868;28;19963;-78
2022/03/11 10:30:21;;;;;;;;;;;;;;;;;;5127319;28;19923;-78
2022/03/11 10:32:52;;;;;;;;;;;;;;;;;;5126311;28;19915;-79
2022/03/11 10:35:18;;;;;;;;;;;;;;;;;;5127162;28;19915;-77
2022/03/11 10:38:03;;;;;;;;;;;;;;;;;;5127674;28;19916;-78
2022/03/11 10:40:31;;;;;;;;;;;;;;;;;;5125183;28;19980;-78
2022/03/11 10:43:09;;;;;;;;;;;;;;;;;;5098416;28;19916;-78
2022/03/11 10:46:09;;;;;;;;;;;;;;;;;;5106658;28;19923;-78
2022/03/11 10:48:44;;;;;;;;;;;;;;;;;;5098680;28;19927;-78
2022/03/11 10:51:22;;;;;;;;;;;;;;;;;;5106291;28;19916;-79
2022/03/11 10:53:49;;;;;;;;;;;;;;;;;;5100085;28;19916;-80
2022/03/11 10:56:23;;;;;;;;;;;;;;;;;;5097640;28;19948;-80
2022/03/11 10:58:48;;;;;;;;;;;;;;;;;;5115341;28;19923;-78
2022/03/11 11:01:14;;;;;;;;;;;;;;;;;;5117829;28;19916;-79
2022/03/11 11:03:40;;;;;;;;;;;;;;;;;;5117524;28;19915;-79
2022/03/11 11:06:05;;;;;;;;;;;;;;;;;;5120096;27;19920;-79
2022/03/11 11:08:33;;;;;;;;;;;;;;;;;;5123598;28;19968;-78
2022/03/11 11:10:59;;;;;;;;;;;;;;;;;;5121700;28;19924;-81
2022/03/11 11:13:24;;;;;;;;;;;;;;;;;;5119296;28;19916;-81
2022/03/11 11:15:52;;;;;;;;;;;;;;;;;;5121142;28;19923;-81
2022/03/11 11:18:17;;;;;;;;;;;;;;;;;;5121607;28;20003;-81
2022/03/11 11:20:47;;;;;;;;;;;;;;;;;;5109768;28;19955;-80
2022/03/11 11:23:13;;;;;;;;;;;;;;;;;;5102086;28;19916;-80
2022/03/11 11:25:40;;;;;;;;;;;;;;;;;;5101135;28;19977;-80
2022/03/11 11:28:07;;;;;;;;;;;;;;;;;;5123382;28;19926;-80
2022/03/11 11:30:33;;;;;;;;;;;;;;;;;;5124028;28;19916;-79
2022/03/11 11:33:00;;;;;;;;;;;;;;;;;;5123938;28;19919;-79
2022/03/11 11:35:27;;;;;;;;;;;;;;;;;;5128022;28;19915;-80
2022/03/11 11:37:57;;;;;;;;;;;;;;;;;;5110060;28;19923;-79
2022/03/11 11:40:35;;;;;;;;;;;;;;;;;;5120970;28;20413;-80
2022/03/11 11:43:16;;;;;;;;;;;;;;;;;;5119694;28;19916;-81
2022/03/11 11:45:42;;;;;;;;;;;;;;;;;;5127739;28;19920;-81
2022/03/11 11:48:26;;;;;;;;;;;;;;;;;;5123157;28;19915;-84
2022/03/11 11:50:52;;;;;;;;;;;;;;;;;;5102117;28;19920;-81
2022/03/11 11:53:36;;;;;;;;;;;;;;;;;;5109317;28;19939;-81
2022/03/11 11:56:21;;;;;;;;;;;;;;;;;;5116665;28;19922;-79
2022/03/11 11:58:51;;;;;;;;;;;;;;;;;;5121125;28;19915;-81
2022/03/11 12:01:35;;;;;;;;;;;;;;;;;;5121786;28;20403;-80
2022/03/11 12:04:19;;;;;;;;;;;;;;;;;;5115268;28;19916;-80
2022/03/11 12:07:03;;;;;;;;;;;;;;;;;;5100724;28;19998;-80
2022/03/11 12:09:38;;;;;;;;;;;;;;;;;;5106979;28;20393;-80
2022/03/11 12:12:07;;;;;;;;;;;;;;;;;;5099710;28;19920;-80
2022/03/11 12:14:33;;;;;;;;;;;;;;;;;;5119594;28;20381;-79
2022/03/11 12:16:59;;;;;;;;;;;;;;;;;;5121402;27;19911;-80
2022/03/11 12:19:41;;;;;;;;;;;;;;;;;;5121710;28;19916;-80
2022/03/11 12:22:24;;;;;;;;;;;;;;;;;;5120874;28;20453;-80
2022/03/11 12:24:59;;;;;;;;;;;;;;;;;;5120836;28;19959;-80
2022/03/11 12:27:43;;;;;;;;;;;;;;;;;;5120098;27;20293;-79
2022/03/11 12:30:10;;;;;;;;;;;;;;;;;;5120742;28;20440;-80
2022/03/11 12:32:38;;;;;;;;;;;;;;;;;;5118818;28;19916;-80
2022/03/11 12:35:04;;;;;;;;;;;;;;;;;;5110630;28;19916;-79
2022/03/11 12:37:31;;;;;;;;;;;;;;;;;;5119738;28;20416;-80
2022/03/11 12:39:57;;;;;;;;;;;;;;;;;;5114552;28;19939;-80
2022/03/11 12:42:35;;;;;;;;;;;;;;;;;;5103579;28;19915;-79
2022/03/11 12:45:00;;;;;;;;;;;;;;;;;;5100155;28;20331;-80
2022/03/11 12:47:34;;;;;;;;;;;;;;;;;;5099891;28;19916;-80
2022/03/11 12:50:00;;;;;;;;;;;;;;;;;;5118944;28;20447;-80
2022/03/11 12:52:26;;;;;;;;;;;;;;;;;;5120210;28;19958;-80
2022/03/11 12:54:52;;;;;;;;;;;;;;;;;;5120178;28;20018;-80
2022/03/11 12:57:17;;;;;;;;;;;;;;;;;;5117815;28;20027;-80
2022/03/11 12:59:44;;;;;;;;;;;;;;;;;;5119506;27;19916;-80
2022/03/11 13:02:10;;;;;;;;;;;;;;;;;;5118678;28;20395;-80
2022/03/11 13:04:44;;;;;;;;;;;;;;;;;;5105606;28;19923;-80
2022/03/11 13:07:13;;;;;;;;;;;;;;;;;;5097293;28;19920;-79
2022/03/11 13:09:39;;;;;;;;;;;;;;;;;;5098566;28;20010;-80
2022/03/11 13:12:20;;;;;;;;;;;;;;;;;;5098625;28;19943;-79
2022/03/11 13:14:46;;;;;;;;;;;;;;;;;;5109660;28;19915;-79
2022/03/11 13:17:12;;;;;;;;;;;;;;;;;;5105201;28;19926;-80
2022/03/11 13:19:42;;;;;;;;;;;;;;;;;;5108504;28;19977;-80
2022/03/11 13:22:10;;;;;;;;;;;;;;;;;;5118740;28;19922;-80
2022/03/11 13:24:35;;;;;;;;;;;;;;;;;;5114880;28;19938;-80
2022/03/11 13:27:06;;;;;;;;;;;;;;;;;;5101688;28;20019;-79
2022/03/11 13:29:40;;;;;;;;;;;;;;;;;;5110314;28;19923;-80
2022/03/11 13:32:06;;;;;;;;;;;;;;;;;;5119937;28;20014;-80
2022/03/11 13:34:34;;;;;;;;;;;;;;;;;;5102432;28;19981;-80
2022/03/11 13:37:09;;;;;;;;;;;;;;;;;;5119580;28;19988;-80
2022/03/11 13:39:34;;;;;;;;;;;;;;;;;;5120042;28;19916;-80
2022/03/11 13:41:59;;;;;;;;;;;;;;;;;;5118203;28;20018;-79
2022/03/11 13:44:40;;;;;;;;;;;;;;;;;;5120018;28;19916;-79
2022/03/11 13:47:07;;;;;;;;;;;;;;;;;;5119582;28;19945;-80
2022/03/11 13:49:37;;;;;;;;;;;;;;;;;;5109527;28;19927;-80
2022/03/11 13:52:04;;;;;;;;;;;;;;;;;;5098570;28;19916;-80
2022/03/11 13:54:36;;;;;;;;;;;;;;;;;;5098355;28;19916;-80
2022/03/11 13:57:16;;;;;;;;;;;;;;;;;;5098778;28;19967;-79
2022/03/11 13:59:41;;;;;;;;;;;;;;;;;;5099225;28;19942;-79
2022/03/11 14:02:11;;;;;;;;;;;;;;;;;;5098624;28;20393;-80
2022/03/11 14:04:36;;;;;;;;;;;;;;;;;;5097519;28;19991;-80
2022/03/11 14:07:28;;;;;;;;;;;;;;;;;;5080692;28;19948;-80
2022/03/11 14:09:55;;;;;;;;;;;;;;;;;;5096966;28;20021;-81
2022/03/11 14:12:25;;;;;;;;;;;;;;;;;;5105468;28;19915;-81
2022/03/11 14:14:50;;;;;;;;;;;;;;;;;;5117619;28;20373;-80
2022/03/11 14:17:26;;;;;;;;;;;;;;;;;;5114784;28;19912;-79
2022/03/11 14:19:51;;;;;;;;;;;;;;;;;;5117273;28;20388;-79
2022/03/11 14:22:17;;;;;;;;;;;;;;;;;;5104443;28;19912;-78
2022/03/11 14:24:42;;;;;;;;;;;;;;;;;;5100228;28;19923;-79
2022/03/11 14:27:15;;;;;;;;;;;;;;;;;;5097107;28;19926;-79
2022/03/11 14:29:40;;;;;;;;;;;;;;;;;;5109362;28;19927;-79
2022/03/11 14:32:06;;;;;;;;;;;;;;;;;;5106253;28;19920;-78
2022/03/11 14:34:31;;;;;;;;;;;;;;;;;;5107962;28;19926;-79
2022/03/11 14:36:56;;;;;;;;;;;;;;;;;;5101624;28;20008;-79
2022/03/11 14:39:21;;;;;;;;;;;;;;;;;;5096194;28;19947;-78
2022/03/11 14:41:47;;;;;;;;;;;;;;;;;;5113591;28;19919;-79
2022/03/11 14:44:12;;;;;;;;;;;;;;;;;;5103710;28;19937;-80
2022/03/11 14:46:38;;;;;;;;;;;;;;;;;;5096929;28;20062;-81
2022/03/11 14:49:06;;;;;;;;;;;;;;;;;;5096302;28;20023;-79
2022/03/11 14:51:31;;;;;;;;;;;;;;;;;;5099684;28;19962;-80
2022/03/11 14:53:59;;;;;;;;;;;;;;;;;;5099107;28;19916;-80
2022/03/11 14:56:25;;;;;;;;;;;;;;;;;;5104263;28;20006;-80
2022/03/11 14:58:50;;;;;;;;;;;;;;;;;;5106201;28;19963;-80
2022/03/11 15:01:15;;;;;;;;;;;;;;;;;;5108457;28;19924;-82
2022/03/11 15:03:41;;;;;;;;;;;;;;;;;;5087212;28;20285;-81
2022/03/11 15:06:06;;;;;;;;;;;;;;;;;;5108573;28;20301;-79
2022/03/11 15:08:31;;;;;;;;;;;;;;;;;;5118450;28;19926;-79
2022/03/11 15:10:58;;;;;;;;;;;;;;;;;;5116374;28;19916;-79
2022/03/11 15:13:24;;;;;;;;;;;;;;;;;;5106265;28;19916;-79
2022/03/11 15:15:49;;;;;;;;;;;;;;;;;;5096598;28;19920;-79
2022/03/11 15:18:14;;;;;;;;;;;;;;;;;;5097843;28;20310;-79
2022/03/11 15:20:39;;;;;;;;;;;;;;;;;;5098242;28;19916;-80
2022/03/11 15:23:05;;;;;;;;;;;;;;;;;;5106816;28;19969;-80
2022/03/11 15:25:30;;;;;;;;;;;;;;;;;;5096433;28;19916;-80
2022/03/11 15:27:56;;;;;;;;;;;;;;;;;;5099991;28;19919;-79
2022/03/11 15:30:22;;;;;;;;;;;;;;;;;;5117715;28;19919;-80
2022/03/11 15:32:51;;;;;;;;;;;;;;;;;;5116332;28;19923;-79
2022/03/11 15:35:16;;;;;;;;;;;;;;;;;;5095823;28;20382;-79
2022/03/11 15:37:41;;;;;;;;;;;;;;;;;;5095662;28;20014;-79
2022/03/11 15:40:07;;;;;;;;;;;;;;;;;;5096126;28;19951;-80
2022/03/11 15:42:33;;;;;;;;;;;;;;;;;;5087396;28;19961;-80
2022/03/11 15:44:59;;;;;;;;;;;;;;;;;;5116058;28;19915;-80
2022/03/11 15:47:24;;;;;;;;;;;;;;;;;;5117390;28;19922;-80
2022/03/11 15:49:49;;;;;;;;;;;;;;;;;;5117188;28;20385;-80
2022/03/11 15:52:15;;;;;;;;;;;;;;;;;;5117097;28;19962;-80
2022/03/11 15:54:40;;;;;;;;;;;;;;;;;;5117821;28;19923;-80
2022/03/11 15:57:06;;;;;;;;;;;;;;;;;;5110707;28;19916;-80
2022/03/11 15:59:32;;;;;;;;;;;;;;;;;;5115253;28;20025;-80
2022/03/11 16:01:57;;;;;;;;;;;;;;;;;;5117957;28;20393;-79
2022/03/11 16:04:23;;;;;;;;;;;;;;;;;;5116709;28;20392;-80
2022/03/11 16:06:49;;;;;;;;;;;;;;;;;;5117555;28;20397;-80
2022/03/11 16:09:14;;;;;;;;;;;;;;;;;;5117746;28;19920;-79
2022/03/11 16:11:39;;;;;;;;;;;;;;;;;;5116204;28;20341;-79
2022/03/11 16:14:05;;;;;;;;;;;;;;;;;;5104125;28;19923;-79
2022/03/11 16:16:30;;;;;;;;;;;;;;;;;;5086468;28;20443;-81
2022/03/11 16:18:55;;;;;;;;;;;;;;;;;;5113163;28;19924;-81
2022/03/11 16:21:21;;;;;;;;;;;;;;;;;;5111926;28;20010;-81
2022/03/11 16:23:47;;;;;;;;;;;;;;;;;;5101088;28;19916;-81
2022/03/11 16:26:13;;;;;;;;;;;;;;;;;;5104878;28;19927;-81
2022/03/11 16:28:38;;;;;;;;;;;;;;;;;;5103911;28;19923;-81
2022/03/11 16:31:04;;;;;;;;;;;;;;;;;;5122982;28;20281;-81
2022/03/11 16:33:29;;;;;;;;;;;;;;;;;;5122646;28;19916;-81
2022/03/11 16:35:54;;;;;;;;;;;;;;;;;;5122547;28;19916;-81
2022/03/11 16:38:20;;;;;;;;;;;;;;;;;;5120683;28;19915;-81
2022/03/11 16:40:45;;;;;;;;;;;;;;;;;;5121975;28;19916;-80
2022/03/11 16:43:11;;;;;;;;;;;;;;;;;;5122009;28;20581;-81
2022/03/11 16:45:37;;;;;;;;;;;;;;;;;;5120469;28;19998;-81
2022/03/11 16:48:03;;;;;;;;;;;;;;;;;;5121816;28;19924;-81
2022/03/11 16:50:29;;;;;;;;;;;;;;;;;;5121068;28;19916;-81
2022/03/11 16:52:55;;;;;;;;;;;;;;;;;;5121577;27;19923;-80
2022/03/11 16:55:20;;;;;;;;;;;;;;;;;;5121850;28;19912;-81
2022/03/11 16:57:46;;;;;;;;;;;;;;;;;;5121990;28;19922;-81
2022/03/11 17:00:12;;;;;;;;;;;;;;;;;;5121557;27;19916;-80
2022/03/11 17:02:41;;;;;;;;;;;;;;;;;;5122310;28;19915;-81
2022/03/11 17:05:06;;;;;;;;;;;;;;;;;;5122052;28;20435;-81
2022/03/11 17:07:32;;;;;;;;;;;;;;;;;;5119925;28;19977;-81
2022/03/11 17:09:57;;;;;;;;;;;;;;;;;;5111661;28;20011;-81
2022/03/11 17:12:22;;;;;;;;;;;;;;;;;;5107143;28;19978;-81
2022/03/11 17:14:48;;;;;;;;;;;;;;;;;;5113995;28;20409;-81
2022/03/11 17:17:13;;;;;;;;;;;;;;;;;;5108734;28;19916;-81
2022/03/11 17:19:39;;;;;;;;;;;;;;;;;;5114841;27;19919;-80
2022/03/11 17:22:04;;;;;;;;;;;;;;;;;;5112290;28;19949;-79
2022/03/11 17:24:30;;;;;;;;;;;;;;;;;;5110370;28;19923;-80
2022/03/11 17:26:55;;;;;;;;;;;;;;;;;;5109790;28;19920;-79
2022/03/11 17:29:20;;;;;;;;;;;;;;;;;;5106830;28;19920;-79
2022/03/11 17:31:46;;;;;;;;;;;;;;;;;;5108620;28;19928;-80
2022/03/11 17:34:11;;;;;;;;;;;;;;;;;;5111499;28;19920;-79
2022/03/11 17:36:37;;;;;;;;;;;;;;;;;;5110369;27;19916;-79
2022/03/11 17:39:03;;;;;;;;;;;;;;;;;;5107325;28;19916;-79
2022/03/11 17:41:28;;;;;;;;;;;;;;;;;;5107310;28;20374;-80
2022/03/11 17:43:54;;;;;;;;;;;;;;;;;;5109771;28;19912;-80
2022/03/11 17:46:19;;;;;;;;;;;;;;;;;;5111404;28;19924;-79
2022/03/11 17:48:45;;;;;;;;;;;;;;;;;;5110073;28;19916;-79
2022/03/11 17:51:11;;;;;;;;;;;;;;;;;;5108947;28;19927;-79
2022/03/11 17:53:38;;;;;;;;;;;;;;;;;;5108817;28;19916;-79
2022/03/11 17:56:04;;;;;;;;;;;;;;;;;;5109590;27;19928;-79
2022/03/11 17:58:32;;;;;;;;;;;;;;;;;;5112580;28;19922;-79
2022/03/11 18:00:58;;;;;;;;;;;;;;;;;;5120251;28;20398;-79
2022/03/11 18:03:23;;;;;;;;;;;;;;;;;;5120915;28;19916;-78
2022/03/11 18:05:48;;;;;;;;;;;;;;;;;;5121507;27;19916;-79
2022/03/11 18:08:14;;;;;;;;;;;;;;;;;;5120099;28;19920;-79
2022/03/11 18:10:39;;;;;;;;;;;;;;;;;;5119717;28;20002;-78
2022/03/11 18:13:06;;;;;;;;;;;;;;;;;;5116972;28;19969;-77
2022/03/11 18:15:31;;;;;;;;;;;;;;;;;;5116145;28;19962;-77
2022/03/11 18:17:57;;;;;;;;;;;;;;;;;;5113394;28;20338;-76
2022/03/11 18:20:22;;;;;;;;;;;;;;;;;;5115219;28;19919;-76
2022/03/11 18:22:52;;;;;;;;;;;;;;;;;;5113702;28;20312;-77
2022/03/11 18:25:20;;;;;;;;;;;;;;;;;;5116870;28;19943;-78
2022/03/11 18:27:45;;;;;;;;;;;;;;;;;;5116610;28;19916;-76
2022/03/11 18:30:11;;;;;;;;;;;;;;;;;;5114484;28;19916;-77
2022/03/11 18:32:36;;;;;;;;;;;;;;;;;;5115727;27;19916;-77
2022/03/11 18:35:02;;;;;;;;;;;;;;;;;;5117410;28;20030;-78
2022/03/11 18:37:29;;;;;;;;;;;;;;;;;;5123228;28;19920;-77
2022/03/11 18:39:57;;;;;;;;;;;;;;;;;;5120178;28;20388;-78
2022/03/11 18:42:22;;;;;;;;;;;;;;;;;;5117304;28;19966;-76
2022/03/11 18:44:48;;;;;;;;;;;;;;;;;;5115104;28;20035;-77
2022/03/11 18:47:13;;;;;;;;;;;;;;;;;;5117108;28;19942;-77
2022/03/11 18:49:39;;;;;;;;;;;;;;;;;;5115706;28;19986;-76
2022/03/11 18:52:04;;;;;;;;;;;;;;;;;;5110437;28;20273;-77
2022/03/11 18:54:30;;;;;;;;;;;;;;;;;;5098671;28;19916;-77
2022/03/11 18:56:55;;;;;;;;;;;;;;;;;;5098097;28;19916;-77
2022/03/11 18:59:21;;;;;;;;;;;;;;;;;;5115781;28;20296;-77
2022/03/11 19:01:48;;;;;;;;;;;;;;;;;;5099010;28;19916;-77
2022/03/11 19:04:14;;;;;;;;;;;;;;;;;;5116685;28;19916;-76
2022/03/11 19:06:39;;;;;;;;;;;;;;;;;;5102817;28;19927;-77
2022/03/11 19:09:07;;;;;;;;;;;;;;;;;;5095997;28;19920;-77
2022/03/11 19:11:34;;;;;;;;;;;;;;;;;;5100983;28;19920;-77
2022/03/11 19:14:00;;;;;;;;;;;;;;;;;;5111793;28;20380;-77
2022/03/11 19:16:25;;;;;;;;;;;;;;;;;;5115989;28;19916;-77
2022/03/11 19:18:51;;;;;;;;;;;;;;;;;;5114886;28;19916;-77
2022/03/11 19:21:19;;;;;;;;;;;;;;;;;;5119726;28;19916;-77
2022/03/11 19:23:48;;;;;;;;;;;;;;;;;;5084938;28;19916;-77
2022/03/11 19:26:14;;;;;;;;;;;;;;;;;;5117046;28;19916;-77
2022/03/11 19:28:39;;;;;;;;;;;;;;;;;;5103473;28;19966;-77
2022/03/11 19:31:07;;;;;;;;;;;;;;;;;;5096079;28;19916;-77
2022/03/11 19:33:34;;;;;;;;;;;;;;;;;;5108613;28;19973;-77
2022/03/11 19:36:02;;;;;;;;;;;;;;;;;;5096048;28;20335;-77
2022/03/11 19:38:28;;;;;;;;;;;;;;;;;;5096441;28;20011;-77
2022/03/11 19:40:59;;;;;;;;;;;;;;;;;;5095593;28;19959;-77
2022/03/11 19:43:24;;;;;;;;;;;;;;;;;;5095489;28;20396;-77
2022/03/11 19:45:51;;;;;;;;;;;;;;;;;;5110598;28;19972;-77
2022/03/11 19:48:17;;;;;;;;;;;;;;;;;;5116234;28;19920;-77
2022/03/11 19:50:43;;;;;;;;;;;;;;;;;;5120214;28;20373;-77
2022/03/11 19:53:08;;;;;;;;;;;;;;;;;;5107804;28;20015;-77
2022/03/11 19:55:35;;;;;;;;;;;;;;;;;;5099477;28;19969;-77
2022/03/11 19:58:00;;;;;;;;;;;;;;;;;;5115223;28;19966;-76
2022/03/11 20:00:26;;;;;;;;;;;;;;;;;;5118195;28;20341;-76
2022/03/11 20:02:53;;;;;;;;;;;;;;;;;;5102519;28;19920;-77
2022/03/11 20:05:19;;;;;;;;;;;;;;;;;;5096868;28;19962;-77
2022/03/11 20:07:46;;;;;;;;;;;;;;;;;;5096869;28;19928;-77
2022/03/11 20:10:12;;;;;;;;;;;;;;;;;;5097341;28;19924;-77
2022/03/11 20:12:40;;;;;;;;;;;;;;;;;;5100355;28;20383;-77
2022/03/11 20:15:06;;;;;;;;;;;;;;;;;;5115468;28;19923;-78
2022/03/11 20:17:32;;;;;;;;;;;;;;;;;;5116909;28;20377;-78
2022/03/11 20:19:57;;;;;;;;;;;;;;;;;;5117354;28;19923;-77
2022/03/11 20:22:23;;;;;;;;;;;;;;;;;;5110819;28;19916;-77
2022/03/11 20:24:49;;;;;;;;;;;;;;;;;;5106247;28;19956;-77
2022/03/11 20:27:14;;;;;;;;;;;;;;;;;;5117664;28;19922;-77
2022/03/11 20:29:40;;;;;;;;;;;;;;;;;;5110700;27;19919;-77
2022/03/11 20:32:07;;;;;;;;;;;;;;;;;;5122877;27;20281;-77
2022/03/11 20:34:32;;;;;;;;;;;;;;;;;;5117090;28;20316;-77
2022/03/11 20:36:59;;;;;;;;;;;;;;;;;;5104203;27;19923;-77
2022/03/11 20:39:25;;;;;;;;;;;;;;;;;;5103686;28;19922;-77
2022/03/11 20:41:51;;;;;;;;;;;;;;;;;;5102304;28;20003;-77
2022/03/11 20:44:17;;;;;;;;;;;;;;;;;;5107142;28;19919;-76
2022/03/11 20:46:47;;;;;;;;;;;;;;;;;;5086014;28;20006;-77
2022/03/11 20:49:13;;;;;;;;;;;;;;;;;;5102148;28;19998;-77
2022/03/11 20:51:39;;;;;;;;;;;;;;;;;;5108467;28;19922;-76